AQQ10 IFIS: Internet Flight Information System
logo dgac
Martes 06 de Diciembre del 2022
Buscar por aerodromo o helipuerto
Ingrese nombre de aeródromo, localidad o designador OACI:
METAR del 06-12-2022 a las 07:00 UTC
Para mayor información visite www.meteochile.cl
METAR SCAP 060700Z AUTO VRB02KT 9999 ////// 10/05 Q1015
Viento: dirección variable, velocidad 2 nudos
Visibilidad: 10 km o más
Temperatura: 10 °C
Rocío: 5 °C
Humedad_relativa: 71%
Presión: 1015 hPa
METAR del 06-12-2022 a las 06:00 UTC
Para mayor información visite www.meteochile.cl
METAR SCAP 060600Z AUTO 09003KT 040V150 9999 ////// 09/06 Q1015
Viento: dirección 090 grados, velocidad 3 nudos
Viento con dirección variable entre 040 y 150 grados
Visibilidad: 10 km o más
Temperatura: 9 °C
Rocío: 6 °C
Humedad_relativa: 81%
Presión: 1015 hPa
METAR del 06-12-2022 a las 05:00 UTC
Para mayor información visite www.meteochile.cl
METAR SCAP 060500Z AUTO VRB03KT 9999 ////// 09/07 Q1015
Viento: dirección variable, velocidad 3 nudos
Visibilidad: 10 km o más
Temperatura: 9 °C
Rocío: 7 °C
Humedad_relativa: 87%
Presión: 1015 hPa
METAR del 06-12-2022 a las 04:00 UTC
Para mayor información visite www.meteochile.cl
METAR SCAP 060400Z AUTO VRB03KT 9999 ////// 10/07 Q1015
Viento: dirección variable, velocidad 3 nudos
Visibilidad: 10 km o más
Temperatura: 10 °C
Rocío: 7 °C
Humedad_relativa: 82%
Presión: 1015 hPa
METAR del 06-12-2022 a las 03:00 UTC
Para mayor información visite www.meteochile.cl
METAR SCAP 060300Z AUTO 21009G19KT 150V260 9999 ////// 11/06 Q1014
Viento: dirección 210 grados, velocidad 9 nudos, con ráfagas de velocidad máxima de 19Nudos
Viento con dirección variable entre 150 y 260 grados
Visibilidad: 10 km o más
Temperatura: 11 °C
Rocío: 6 °C
Humedad_relativa: 71%
Presión: 1014 hPa
METAR del 06-12-2022 a las 02:00 UTC
Para mayor información visite www.meteochile.cl
METAR SCAP 060200Z AUTO 21012G22KT 150V260 9999 ////// 11/07 Q1014
Viento: dirección 210 grados, velocidad 12 nudos, con ráfagas de velocidad máxima de 22Nudos
Viento con dirección variable entre 150 y 260 grados
Visibilidad: 10 km o más
Temperatura: 11 °C
Rocío: 7 °C
Humedad_relativa: 76%
Presión: 1014 hPa
METAR del 06-12-2022 a las 01:00 UTC
Para mayor información visite www.meteochile.cl
METAR SCAP 060100Z AUTO 21011KT 170V250 9999 -RA ////// 11/08 Q1014
Viento: dirección 210 grados, velocidad 11 nudos
Viento con dirección variable entre 170 y 250 grados
Visibilidad: 10 km o más
Débil Lluvia
Temperatura: 11 °C
Rocío: 8 °C
Humedad_relativa: 82%
Presión: 1014 hPa
METAR del 06-12-2022 a las 00:00 UTC
Para mayor información visite www.meteochile.cl
METAR SCAP 060000Z AUTO 22010KT 180V260 9999 -RA ////// 11/08 Q1013
Viento: dirección 220 grados, velocidad 10 nudos
Viento con dirección variable entre 180 y 260 grados
Visibilidad: 10 km o más
Débil Lluvia
Temperatura: 11 °C
Rocío: 8 °C
Humedad_relativa: 82%
Presión: 1013 hPa
METAR del 05-12-2022 a las 23:00 UTC
Para mayor información visite www.meteochile.cl
METAR SCAP 052300Z AUTO VRB02KT 9999 ////// 13/10 Q1011
Viento: dirección variable, velocidad 2 nudos
Visibilidad: 10 km o más
Temperatura: 13 °C
Rocío: 10 °C
Humedad_relativa: 82%
Presión: 1011 hPa
METAR del 05-12-2022 a las 22:00 UTC
Para mayor información visite www.meteochile.cl
METAR SCAP 052200Z AUTO 24004KT 160V300 9999 -RA ////// 13/10 Q1011 RERA
Viento: dirección 240 grados, velocidad 4 nudos
Viento con dirección variable entre 160 y 300 grados
Visibilidad: 10 km o más
Débil Lluvia
Temperatura: 13 °C
Rocío: 10 °C
Humedad_relativa: 82%
Presión: 1011 hPa
Se observó recientemente Lluvia